sensor_id;sensor_type;location;lat;lon;timestamp;P1;durP1;ratioP1;P2;durP2;ratioP2
7653;SDS011;3869;48.406;10.774;2022-07-29T00:01:40;2.40;;;1.33;;
7653;SDS011;3869;48.406;10.774;2022-07-29T00:04:10;1.00;;;1.00;;
7653;SDS011;3869;48.406;10.774;2022-07-29T00:06:39;1.10;;;1.00;;
7653;SDS011;3869;48.406;10.774;2022-07-29T00:09:07;3.30;;;1.67;;
7653;SDS011;3869;48.406;10.774;2022-07-29T00:11:35;1.00;;;1.00;;
7653;SDS011;3869;48.406;10.774;2022-07-29T00:14:03;1.33;;;1.30;;
7653;SDS011;3869;48.406;10.774;2022-07-29T00:16:32;2.77;;;2.00;;
7653;SDS011;3869;48.406;10.774;2022-07-29T00:19:00;1.73;;;1.63;;
7653;SDS011;3869;48.406;10.774;2022-07-29T00:21:29;1.30;;;1.20;;
7653;SDS011;3869;48.406;10.774;2022-07-29T00:23:57;1.07;;;1.07;;
7653;SDS011;3869;48.406;10.774;2022-07-29T00:26:25;0.83;;;0.83;;
7653;SDS011;3869;48.406;10.774;2022-07-29T00:28:58;1.57;;;1.47;;
7653;SDS011;3869;48.406;10.774;2022-07-29T00:31:46;1.60;;;1.10;;
7653;SDS011;3869;48.406;10.774;2022-07-29T00:34:14;1.20;;;1.20;;
7653;SDS011;3869;48.406;10.774;2022-07-29T00:36:57;1.63;;;1.17;;
7653;SDS011;3869;48.406;10.774;2022-07-29T00:39:25;1.23;;;1.23;;
7653;SDS011;3869;48.406;10.774;2022-07-29T00:41:54;1.93;;;0.87;;
7653;SDS011;3869;48.406;10.774;2022-07-29T00:44:22;0.93;;;0.93;;
7653;SDS011;3869;48.406;10.774;2022-07-29T00:46:50;1.87;;;1.77;;
7653;SDS011;3869;48.406;10.774;2022-07-29T00:49:18;1.53;;;1.50;;
7653;SDS011;3869;48.406;10.774;2022-07-29T00:51:46;1.40;;;1.40;;
7653;SDS011;3869;48.406;10.774;2022-07-29T00:54:16;1.63;;;1.53;;
7653;SDS011;3869;48.406;10.774;2022-07-29T00:56:45;1.40;;;1.30;;
7653;SDS011;3869;48.406;10.774;2022-07-29T00:59:13;4.20;;;1.30;;
7653;SDS011;3869;48.406;10.774;2022-07-29T01:01:41;3.80;;;1.77;;
7653;SDS011;3869;48.406;10.774;2022-07-29T01:04:09;1.20;;;1.10;;
7653;SDS011;3869;48.406;10.774;2022-07-29T01:06:39;1.50;;;1.40;;
7653;SDS011;3869;48.406;10.774;2022-07-29T01:09:07;1.87;;;1.33;;
7653;SDS011;3869;48.406;10.774;2022-07-29T01:11:38;11.13;;;1.30;;
7653;SDS011;3869;48.406;10.774;2022-07-29T01:14:07;1.27;;;1.17;;
7653;SDS011;3869;48.406;10.774;2022-07-29T01:16:37;1.30;;;1.20;;
7653;SDS011;3869;48.406;10.774;2022-07-29T01:19:13;1.17;;;1.17;;
7653;SDS011;3869;48.406;10.774;2022-07-29T01:22:13;0.80;;;0.80;;
7653;SDS011;3869;48.406;10.774;2022-07-29T01:25:19;1.10;;;1.10;;
7653;SDS011;3869;48.406;10.774;2022-07-29T01:28:17;2.17;;;2.07;;
7653;SDS011;3869;48.406;10.774;2022-07-29T01:31:04;3.50;;;2.40;;
7653;SDS011;3869;48.406;10.774;2022-07-29T01:33:38;0.90;;;0.90;;
7653;SDS011;3869;48.406;10.774;2022-07-29T01:36:17;1.07;;;1.07;;
7653;SDS011;3869;48.406;10.774;2022-07-29T01:38:52;1.13;;;1.13;;
7653;SDS011;3869;48.406;10.774;2022-07-29T01:41:25;1.30;;;1.30;;
7653;SDS011;3869;48.406;10.774;2022-07-29T01:44:01;1.10;;;1.10;;
7653;SDS011;3869;48.406;10.774;2022-07-29T01:46:41;1.30;;;1.27;;
7653;SDS011;3869;48.406;10.774;2022-07-29T01:49:16;1.53;;;1.43;;
7653;SDS011;3869;48.406;10.774;2022-07-29T01:51:47;1.60;;;1.50;;
7653;SDS011;3869;48.406;10.774;2022-07-29T01:54:19;1.57;;;1.10;;
7653;SDS011;3869;48.406;10.774;2022-07-29T01:56:53;1.90;;;1.20;;
7653;SDS011;3869;48.406;10.774;2022-07-29T01:59:25;1.33;;;1.33;;
7653;SDS011;3869;48.406;10.774;2022-07-29T02:01:54;1.53;;;1.43;;
7653;SDS011;3869;48.406;10.774;2022-07-29T02:04:24;1.80;;;1.70;;
7653;SDS011;3869;48.406;10.774;2022-07-29T02:06:57;1.20;;;1.20;;
7653;SDS011;3869;48.406;10.774;2022-07-29T02:09:29;1.87;;;1.70;;
7653;SDS011;3869;48.406;10.774;2022-07-29T02:11:59;1.70;;;1.60;;
7653;SDS011;3869;48.406;10.774;2022-07-29T02:14:30;2.53;;;1.43;;
7653;SDS011;3869;48.406;10.774;2022-07-29T02:17:01;1.20;;;1.20;;
7653;SDS011;3869;48.406;10.774;2022-07-29T02:19:30;2.40;;;2.20;;
7653;SDS011;3869;48.406;10.774;2022-07-29T02:22:00;1.40;;;1.30;;
7653;SDS011;3869;48.406;10.774;2022-07-29T02:24:30;2.10;;;1.97;;
7653;SDS011;3869;48.406;10.774;2022-07-29T02:26:58;1.97;;;1.87;;
7653;SDS011;3869;48.406;10.774;2022-07-29T02:29:28;1.70;;;1.60;;
7653;SDS011;3869;48.406;10.774;2022-07-29T02:32:00;1.63;;;1.50;;
7653;SDS011;3869;48.406;10.774;2022-07-29T02:34:29;1.60;;;1.50;;
7653;SDS011;3869;48.406;10.774;2022-07-29T02:37:00;1.90;;;1.80;;
7653;SDS011;3869;48.406;10.774;2022-07-29T02:39:30;1.97;;;1.80;;
7653;SDS011;3869;48.406;10.774;2022-07-29T02:42:02;1.43;;;1.33;;
7653;SDS011;3869;48.406;10.774;2022-07-29T02:44:34;2.13;;;1.87;;
7653;SDS011;3869;48.406;10.774;2022-07-29T02:47:04;1.47;;;1.40;;
7653;SDS011;3869;48.406;10.774;2022-07-29T02:49:42;1.33;;;1.23;;
7653;SDS011;3869;48.406;10.774;2022-07-29T02:52:18;2.00;;;1.90;;
7653;SDS011;3869;48.406;10.774;2022-07-29T02:54:51;2.00;;;1.90;;
7653;SDS011;3869;48.406;10.774;2022-07-29T02:57:26;2.50;;;1.47;;
7653;SDS011;3869;48.406;10.774;2022-07-29T03:00:01;1.50;;;1.40;;
7653;SDS011;3869;48.406;10.774;2022-07-29T03:02:33;2.40;;;2.17;;
7653;SDS011;3869;48.406;10.774;2022-07-29T03:05:04;1.40;;;1.30;;
7653;SDS011;3869;48.406;10.774;2022-07-29T03:07:35;1.30;;;1.20;;
7653;SDS011;3869;48.406;10.774;2022-07-29T03:10:05;2.13;;;1.93;;
7653;SDS011;3869;48.406;10.774;2022-07-29T03:12:39;3.23;;;2.13;;
7653;SDS011;3869;48.406;10.774;2022-07-29T03:15:09;1.80;;;1.70;;
7653;SDS011;3869;48.406;10.774;2022-07-29T03:17:38;1.37;;;1.37;;
7653;SDS011;3869;48.406;10.774;2022-07-29T03:20:07;8.13;;;2.30;;
7653;SDS011;3869;48.406;10.774;2022-07-29T03:22:38;2.90;;;1.63;;
7653;SDS011;3869;48.406;10.774;2022-07-29T03:25:09;1.83;;;1.50;;
7653;SDS011;3869;48.406;10.774;2022-07-29T03:27:38;16.00;;;1.83;;
7653;SDS011;3869;48.406;10.774;2022-07-29T03:30:06;1.37;;;1.27;;
7653;SDS011;3869;48.406;10.774;2022-07-29T03:32:37;1.80;;;1.70;;
7653;SDS011;3869;48.406;10.774;2022-07-29T03:35:06;2.07;;;1.87;;
7653;SDS011;3869;48.406;10.774;2022-07-29T03:37:35;1.80;;;1.70;;
7653;SDS011;3869;48.406;10.774;2022-07-29T03:40:04;1.40;;;1.40;;
7653;SDS011;3869;48.406;10.774;2022-07-29T03:42:35;1.83;;;1.73;;
7653;SDS011;3869;48.406;10.774;2022-07-29T03:45:07;2.07;;;1.87;;
7653;SDS011;3869;48.406;10.774;2022-07-29T03:47:47;1.70;;;1.60;;
7653;SDS011;3869;48.406;10.774;2022-07-29T03:50:25;1.73;;;1.63;;
7653;SDS011;3869;48.406;10.774;2022-07-29T03:52:54;2.80;;;1.50;;
7653;SDS011;3869;48.406;10.774;2022-07-29T03:55:22;1.77;;;1.60;;
7653;SDS011;3869;48.406;10.774;2022-07-29T03:57:51;1.67;;;1.57;;
7653;SDS011;3869;48.406;10.774;2022-07-29T04:00:20;1.90;;;1.80;;
7653;SDS011;3869;48.406;10.774;2022-07-29T04:02:51;1.87;;;1.77;;
7653;SDS011;3869;48.406;10.774;2022-07-29T04:05:19;1.60;;;1.50;;
7653;SDS011;3869;48.406;10.774;2022-07-29T04:07:47;1.00;;;1.00;;
7653;SDS011;3869;48.406;10.774;2022-07-29T04:10:16;2.60;;;1.53;;
7653;SDS011;3869;48.406;10.774;2022-07-29T04:12:57;1.50;;;1.40;;
7653;SDS011;3869;48.406;10.774;2022-07-29T04:15:25;1.27;;;1.20;;
7653;SDS011;3869;48.406;10.774;2022-07-29T04:17:58;2.10;;;1.90;;
7653;SDS011;3869;48.406;10.774;2022-07-29T04:20:26;1.90;;;1.80;;
7653;SDS011;3869;48.406;10.774;2022-07-29T04:22:54;1.50;;;1.40;;
7653;SDS011;3869;48.406;10.774;2022-07-29T04:25:22;1.20;;;1.20;;
7653;SDS011;3869;48.406;10.774;2022-07-29T04:27:50;3.90;;;2.60;;
7653;SDS011;3869;48.406;10.774;2022-07-29T04:30:27;3.30;;;2.23;;
7653;SDS011;3869;48.406;10.774;2022-07-29T04:32:56;2.63;;;2.43;;
7653;SDS011;3869;48.406;10.774;2022-07-29T04:35:27;4.40;;;2.30;;
7653;SDS011;3869;48.406;10.774;2022-07-29T04:38:03;3.30;;;3.00;;
7653;SDS011;3869;48.406;10.774;2022-07-29T04:40:31;2.83;;;2.63;;
7653;SDS011;3869;48.406;10.774;2022-07-29T04:43:04;2.57;;;2.37;;
7653;SDS011;3869;48.406;10.774;2022-07-29T04:45:32;3.07;;;2.77;;
7653;SDS011;3869;48.406;10.774;2022-07-29T04:48:01;2.70;;;2.50;;
7653;SDS011;3869;48.406;10.774;2022-07-29T04:50:30;3.20;;;2.90;;
7653;SDS011;3869;48.406;10.774;2022-07-29T04:52:58;3.00;;;2.67;;
7653;SDS011;3869;48.406;10.774;2022-07-29T04:55:26;2.57;;;2.40;;
7653;SDS011;3869;48.406;10.774;2022-07-29T04:57:54;4.00;;;3.13;;
7653;SDS011;3869;48.406;10.774;2022-07-29T05:00:22;3.83;;;2.27;;
7653;SDS011;3869;48.406;10.774;2022-07-29T05:02:58;3.40;;;3.07;;
7653;SDS011;3869;48.406;10.774;2022-07-29T05:05:28;2.17;;;2.07;;
7653;SDS011;3869;48.406;10.774;2022-07-29T05:07:56;2.17;;;2.07;;
7653;SDS011;3869;48.406;10.774;2022-07-29T05:10:24;4.90;;;2.70;;
7653;SDS011;3869;48.406;10.774;2022-07-29T05:12:52;2.40;;;2.30;;
7653;SDS011;3869;48.406;10.774;2022-07-29T05:15:20;4.40;;;3.20;;
7653;SDS011;3869;48.406;10.774;2022-07-29T05:17:48;1.60;;;1.50;;
7653;SDS011;3869;48.406;10.774;2022-07-29T05:20:16;3.07;;;2.80;;
7653;SDS011;3869;48.406;10.774;2022-07-29T05:22:46;3.83;;;2.60;;
7653;SDS011;3869;48.406;10.774;2022-07-29T05:25:15;2.03;;;1.90;;
7653;SDS011;3869;48.406;10.774;2022-07-29T05:27:43;3.57;;;2.33;;
7653;SDS011;3869;48.406;10.774;2022-07-29T05:30:11;5.50;;;3.90;;
7653;SDS011;3869;48.406;10.774;2022-07-29T05:32:39;2.70;;;2.50;;
7653;SDS011;3869;48.406;10.774;2022-07-29T05:35:08;3.30;;;3.00;;
7653;SDS011;3869;48.406;10.774;2022-07-29T05:37:36;3.17;;;2.53;;
7653;SDS011;3869;48.406;10.774;2022-07-29T05:40:07;8.53;;;2.47;;
7653;SDS011;3869;48.406;10.774;2022-07-29T05:43:18;2.80;;;2.60;;
7653;SDS011;3869;48.406;10.774;2022-07-29T05:45:47;2.90;;;2.67;;
7653;SDS011;3869;48.406;10.774;2022-07-29T05:48:15;2.00;;;1.90;;
7653;SDS011;3869;48.406;10.774;2022-07-29T05:50:43;3.13;;;2.53;;
7653;SDS011;3869;48.406;10.774;2022-07-29T05:53:11;2.87;;;2.60;;
7653;SDS011;3869;48.406;10.774;2022-07-29T05:55:45;2.83;;;2.60;;
7653;SDS011;3869;48.406;10.774;2022-07-29T05:58:13;3.63;;;3.10;;
7653;SDS011;3869;48.406;10.774;2022-07-29T06:00:43;5.00;;;3.30;;
7653;SDS011;3869;48.406;10.774;2022-07-29T06:03:11;3.20;;;2.90;;
7653;SDS011;3869;48.406;10.774;2022-07-29T06:05:39;2.50;;;2.30;;
7653;SDS011;3869;48.406;10.774;2022-07-29T06:08:07;3.83;;;2.27;;
7653;SDS011;3869;48.406;10.774;2022-07-29T06:10:35;2.43;;;2.27;;
7653;SDS011;3869;48.406;10.774;2022-07-29T06:13:04;3.10;;;2.60;;
7653;SDS011;3869;48.406;10.774;2022-07-29T06:15:32;8.17;;;3.07;;
7653;SDS011;3869;48.406;10.774;2022-07-29T06:18:01;8.33;;;3.40;;
7653;SDS011;3869;48.406;10.774;2022-07-29T06:20:30;2.87;;;2.60;;
7653;SDS011;3869;48.406;10.774;2022-07-29T06:22:58;3.70;;;2.73;;
7653;SDS011;3869;48.406;10.774;2022-07-29T06:25:27;2.60;;;2.00;;
7653;SDS011;3869;48.406;10.774;2022-07-29T06:27:55;5.80;;;3.20;;
7653;SDS011;3869;48.406;10.774;2022-07-29T06:30:23;2.23;;;2.10;;
7653;SDS011;3869;48.406;10.774;2022-07-29T06:32:51;2.37;;;2.27;;
7653;SDS011;3869;48.406;10.774;2022-07-29T06:35:21;6.67;;;2.90;;
7653;SDS011;3869;48.406;10.774;2022-07-29T06:38:07;3.07;;;2.77;;
7653;SDS011;3869;48.406;10.774;2022-07-29T06:40:56;2.83;;;2.63;;
7653;SDS011;3869;48.406;10.774;2022-07-29T06:43:31;2.70;;;2.50;;
7653;SDS011;3869;48.406;10.774;2022-07-29T06:46:19;3.03;;;2.70;;
7653;SDS011;3869;48.406;10.774;2022-07-29T06:48:48;5.13;;;2.40;;
7653;SDS011;3869;48.406;10.774;2022-07-29T06:51:18;4.30;;;3.90;;
7653;SDS011;3869;48.406;10.774;2022-07-29T06:53:49;2.00;;;1.90;;
7653;SDS011;3869;48.406;10.774;2022-07-29T06:56:28;4.70;;;3.23;;
7653;SDS011;3869;48.406;10.774;2022-07-29T06:58:56;3.23;;;2.83;;
7653;SDS011;3869;48.406;10.774;2022-07-29T07:01:26;2.93;;;2.60;;
7653;SDS011;3869;48.406;10.774;2022-07-29T07:03:54;3.13;;;2.30;;
7653;SDS011;3869;48.406;10.774;2022-07-29T07:06:24;2.83;;;1.57;;
7653;SDS011;3869;48.406;10.774;2022-07-29T07:08:52;2.77;;;2.60;;
7653;SDS011;3869;48.406;10.774;2022-07-29T07:11:20;1.70;;;1.60;;
7653;SDS011;3869;48.406;10.774;2022-07-29T07:13:48;4.20;;;2.00;;
7653;SDS011;3869;48.406;10.774;2022-07-29T07:16:16;1.30;;;1.30;;
7653;SDS011;3869;48.406;10.774;2022-07-29T07:18:44;1.80;;;1.70;;
7653;SDS011;3869;48.406;10.774;2022-07-29T07:21:12;1.57;;;1.47;;
7653;SDS011;3869;48.406;10.774;2022-07-29T07:23:46;1.00;;;1.00;;
7653;SDS011;3869;48.406;10.774;2022-07-29T07:26:14;1.70;;;1.60;;
7653;SDS011;3869;48.406;10.774;2022-07-29T07:28:42;3.37;;;1.70;;
7653;SDS011;3869;48.406;10.774;2022-07-29T07:31:10;1.53;;;1.43;;
7653;SDS011;3869;48.406;10.774;2022-07-29T07:33:38;4.27;;;1.77;;
7653;SDS011;3869;48.406;10.774;2022-07-29T07:36:06;2.10;;;1.73;;
7653;SDS011;3869;48.406;10.774;2022-07-29T07:38:34;1.40;;;1.37;;
7653;SDS011;3869;48.406;10.774;2022-07-29T07:41:04;5.70;;;1.70;;
7653;SDS011;3869;48.406;10.774;2022-07-29T07:43:32;1.37;;;1.37;;
7653;SDS011;3869;48.406;10.774;2022-07-29T07:46:00;2.27;;;2.07;;
7653;SDS011;3869;48.406;10.774;2022-07-29T07:48:28;2.30;;;1.97;;
7653;SDS011;3869;48.406;10.774;2022-07-29T07:50:56;1.50;;;1.40;;
7653;SDS011;3869;48.406;10.774;2022-07-29T07:53:24;3.97;;;1.80;;
7653;SDS011;3869;48.406;10.774;2022-07-29T07:55:52;3.50;;;1.60;;
7653;SDS011;3869;48.406;10.774;2022-07-29T07:58:39;1.67;;;1.57;;
7653;SDS011;3869;48.406;10.774;2022-07-29T08:01:07;1.50;;;1.40;;
7653;SDS011;3869;48.406;10.774;2022-07-29T08:03:35;1.60;;;1.43;;
7653;SDS011;3869;48.406;10.774;2022-07-29T08:06:04;1.43;;;1.20;;
7653;SDS011;3869;48.406;10.774;2022-07-29T08:08:32;6.53;;;1.50;;
7653;SDS011;3869;48.406;10.774;2022-07-29T08:11:00;1.90;;;1.80;;
7653;SDS011;3869;48.406;10.774;2022-07-29T08:13:35;2.73;;;1.70;;
7653;SDS011;3869;48.406;10.774;2022-07-29T08:16:05;2.00;;;1.90;;
7653;SDS011;3869;48.406;10.774;2022-07-29T08:18:42;2.10;;;2.00;;
7653;SDS011;3869;48.406;10.774;2022-07-29T08:21:12;2.50;;;1.27;;
7653;SDS011;3869;48.406;10.774;2022-07-29T08:23:41;1.30;;;1.20;;
7653;SDS011;3869;48.406;10.774;2022-07-29T08:26:24;1.70;;;1.60;;
7653;SDS011;3869;48.406;10.774;2022-07-29T08:28:52;1.37;;;1.37;;
7653;SDS011;3869;48.406;10.774;2022-07-29T08:31:21;1.30;;;1.30;;
7653;SDS011;3869;48.406;10.774;2022-07-29T08:33:50;1.13;;;1.13;;
7653;SDS011;3869;48.406;10.774;2022-07-29T08:36:18;1.57;;;1.47;;
7653;SDS011;3869;48.406;10.774;2022-07-29T08:38:47;1.47;;;1.37;;
7653;SDS011;3869;48.406;10.774;2022-07-29T08:41:15;2.53;;;1.33;;
7653;SDS011;3869;48.406;10.774;2022-07-29T08:43:45;1.73;;;1.63;;
7653;SDS011;3869;48.406;10.774;2022-07-29T08:46:13;1.40;;;1.30;;
7653;SDS011;3869;48.406;10.774;2022-07-29T08:48:43;1.77;;;1.70;;
7653;SDS011;3869;48.406;10.774;2022-07-29T08:51:12;1.03;;;1.00;;
7653;SDS011;3869;48.406;10.774;2022-07-29T08:53:42;3.10;;;1.50;;
7653;SDS011;3869;48.406;10.774;2022-07-29T08:56:12;1.13;;;1.07;;
7653;SDS011;3869;48.406;10.774;2022-07-29T08:58:40;2.03;;;1.83;;
7653;SDS011;3869;48.406;10.774;2022-07-29T09:01:16;1.10;;;1.10;;
7653;SDS011;3869;48.406;10.774;2022-07-29T09:03:47;1.23;;;1.17;;
7653;SDS011;3869;48.406;10.774;2022-07-29T09:06:17;1.90;;;1.30;;
7653;SDS011;3869;48.406;10.774;2022-07-29T09:08:48;1.50;;;1.30;;
7653;SDS011;3869;48.406;10.774;2022-07-29T09:11:16;1.67;;;1.53;;
7653;SDS011;3869;48.406;10.774;2022-07-29T09:13:45;1.47;;;1.40;;
7653;SDS011;3869;48.406;10.774;2022-07-29T09:16:15;0.90;;;0.90;;
7653;SDS011;3869;48.406;10.774;2022-07-29T09:19:05;1.43;;;1.33;;
7653;SDS011;3869;48.406;10.774;2022-07-29T09:21:47;1.50;;;1.40;;
7653;SDS011;3869;48.406;10.774;2022-07-29T09:24:42;1.17;;;1.07;;
7653;SDS011;3869;48.406;10.774;2022-07-29T09:27:17;1.63;;;1.10;;
7653;SDS011;3869;48.406;10.774;2022-07-29T09:29:54;3.00;;;1.87;;
7653;SDS011;3869;48.406;10.774;2022-07-29T09:32:24;1.70;;;1.50;;
7653;SDS011;3869;48.406;10.774;2022-07-29T09:37:43;3.43;;;1.57;;
7653;SDS011;3869;48.406;10.774;2022-07-29T09:40:12;1.10;;;1.10;;
7653;SDS011;3869;48.406;10.774;2022-07-29T09:42:42;1.33;;;1.33;;
7653;SDS011;3869;48.406;10.774;2022-07-29T09:45:11;1.77;;;1.40;;
7653;SDS011;3869;48.406;10.774;2022-07-29T09:47:40;1.37;;;1.27;;
7653;SDS011;3869;48.406;10.774;2022-07-29T09:50:11;1.80;;;1.70;;
7653;SDS011;3869;48.406;10.774;2022-07-29T09:52:47;1.70;;;1.60;;
7653;SDS011;3869;48.406;10.774;2022-07-29T09:55:16;2.90;;;2.10;;
7653;SDS011;3869;48.406;10.774;2022-07-29T09:57:45;4.40;;;2.93;;
7653;SDS011;3869;48.406;10.774;2022-07-29T10:00:14;1.73;;;1.70;;
7653;SDS011;3869;48.406;10.774;2022-07-29T10:02:45;1.53;;;1.43;;
7653;SDS011;3869;48.406;10.774;2022-07-29T10:05:18;1.60;;;1.50;;
7653;SDS011;3869;48.406;10.774;2022-07-29T10:07:50;1.40;;;1.30;;
7653;SDS011;3869;48.406;10.774;2022-07-29T10:10:23;1.30;;;1.17;;
7653;SDS011;3869;48.406;10.774;2022-07-29T10:12:53;2.07;;;1.97;;
7653;SDS011;3869;48.406;10.774;2022-07-29T10:15:25;1.30;;;1.30;;
7653;SDS011;3869;48.406;10.774;2022-07-29T10:17:55;3.10;;;2.40;;
7653;SDS011;3869;48.406;10.774;2022-07-29T10:20:25;1.77;;;1.67;;
7653;SDS011;3869;48.406;10.774;2022-07-29T10:22:55;17.63;;;2.07;;
7653;SDS011;3869;48.406;10.774;2022-07-29T10:25:23;1.90;;;1.50;;
7653;SDS011;3869;48.406;10.774;2022-07-29T10:27:52;1.30;;;1.20;;
7653;SDS011;3869;48.406;10.774;2022-07-29T10:30:21;1.50;;;1.40;;
7653;SDS011;3869;48.406;10.774;2022-07-29T10:35:47;2.53;;;1.70;;
7653;SDS011;3869;48.406;10.774;2022-07-29T10:41:26;1.97;;;1.87;;
7653;SDS011;3869;48.406;10.774;2022-07-29T10:44:12;4.50;;;2.13;;
7653;SDS011;3869;48.406;10.774;2022-07-29T10:47:03;1.83;;;1.73;;
7653;SDS011;3869;48.406;10.774;2022-07-29T10:49:32;1.87;;;1.77;;
7653;SDS011;3869;48.406;10.774;2022-07-29T10:52:01;1.20;;;1.20;;
7653;SDS011;3869;48.406;10.774;2022-07-29T10:54:39;1.80;;;1.60;;
7653;SDS011;3869;48.406;10.774;2022-07-29T10:57:15;15.27;;;2.13;;
7653;SDS011;3869;48.406;10.774;2022-07-29T10:59:46;1.60;;;1.50;;
7653;SDS011;3869;48.406;10.774;2022-07-29T11:05:10;1.73;;;1.63;;
7653;SDS011;3869;48.406;10.774;2022-07-29T11:08:16;1.87;;;1.77;;
7653;SDS011;3869;48.406;10.774;2022-07-29T11:11:29;1.40;;;1.30;;
7653;SDS011;3869;48.406;10.774;2022-07-29T11:14:09;2.17;;;2.03;;
7653;SDS011;3869;48.406;10.774;2022-07-29T11:19:32;1.60;;;1.50;;
7653;SDS011;3869;48.406;10.774;2022-07-29T11:22:01;2.13;;;1.93;;
7653;SDS011;3869;48.406;10.774;2022-07-29T11:24:30;2.10;;;1.27;;
7653;SDS011;3869;48.406;10.774;2022-07-29T11:27:12;3.07;;;1.63;;
7653;SDS011;3869;48.406;10.774;2022-07-29T11:29:50;1.57;;;1.57;;
7653;SDS011;3869;48.406;10.774;2022-07-29T11:32:21;1.10;;;1.10;;
7653;SDS011;3869;48.406;10.774;2022-07-29T11:37:43;1.33;;;1.23;;
7653;SDS011;3869;48.406;10.774;2022-07-29T11:40:22;1.40;;;1.30;;
7653;SDS011;3869;48.406;10.774;2022-07-29T11:42:52;2.00;;;1.90;;
7653;SDS011;3869;48.406;10.774;2022-07-29T11:45:21;1.27;;;1.27;;
7653;SDS011;3869;48.406;10.774;2022-07-29T11:48:14;1.53;;;1.43;;
7653;SDS011;3869;48.406;10.774;2022-07-29T11:50:57;1.70;;;1.60;;
7653;SDS011;3869;48.406;10.774;2022-07-29T11:53:28;1.60;;;1.50;;
7653;SDS011;3869;48.406;10.774;2022-07-29T11:55:58;6.43;;;1.57;;
7653;SDS011;3869;48.406;10.774;2022-07-29T11:58:30;1.33;;;1.30;;
7653;SDS011;3869;48.406;10.774;2022-07-29T12:00:58;1.73;;;1.60;;
7653;SDS011;3869;48.406;10.774;2022-07-29T12:03:30;1.50;;;1.40;;
7653;SDS011;3869;48.406;10.774;2022-07-29T12:06:02;1.30;;;1.30;;
7653;SDS011;3869;48.406;10.774;2022-07-29T12:08:39;1.87;;;1.77;;
7653;SDS011;3869;48.406;10.774;2022-07-29T12:11:14;1.73;;;1.30;;
7653;SDS011;3869;48.406;10.774;2022-07-29T12:13:48;2.60;;;1.70;;
7653;SDS011;3869;48.406;10.774;2022-07-29T12:16:17;1.47;;;1.37;;
7653;SDS011;3869;48.406;10.774;2022-07-29T12:18:54;1.20;;;1.20;;
7653;SDS011;3869;48.406;10.774;2022-07-29T12:21:28;3.03;;;2.07;;
7653;SDS011;3869;48.406;10.774;2022-07-29T12:23:56;1.50;;;1.50;;
7653;SDS011;3869;48.406;10.774;2022-07-29T12:26:34;1.23;;;1.23;;
7653;SDS011;3869;48.406;10.774;2022-07-29T12:29:06;1.63;;;1.53;;
7653;SDS011;3869;48.406;10.774;2022-07-29T12:31:59;1.33;;;1.23;;
7653;SDS011;3869;48.406;10.774;2022-07-29T12:34:27;1.27;;;1.17;;
7653;SDS011;3869;48.406;10.774;2022-07-29T12:36:56;5.60;;;2.00;;
7653;SDS011;3869;48.406;10.774;2022-07-29T12:39:24;5.47;;;1.80;;
7653;SDS011;3869;48.406;10.774;2022-07-29T12:41:54;1.90;;;1.80;;
7653;SDS011;3869;48.406;10.774;2022-07-29T12:44:44;1.70;;;1.60;;
7653;SDS011;3869;48.406;10.774;2022-07-29T12:47:13;1.40;;;1.30;;
7653;SDS011;3869;48.406;10.774;2022-07-29T12:49:41;4.50;;;1.40;;
7653;SDS011;3869;48.406;10.774;2022-07-29T12:52:25;1.67;;;1.57;;
7653;SDS011;3869;48.406;10.774;2022-07-29T12:54:55;1.50;;;1.40;;
7653;SDS011;3869;48.406;10.774;2022-07-29T12:57:23;1.43;;;1.33;;
7653;SDS011;3869;48.406;10.774;2022-07-29T13:00:00;1.10;;;1.10;;
7653;SDS011;3869;48.406;10.774;2022-07-29T13:02:33;1.37;;;1.37;;
7653;SDS011;3869;48.406;10.774;2022-07-29T13:05:03;1.47;;;1.37;;
7653;SDS011;3869;48.406;10.774;2022-07-29T13:07:34;1.23;;;1.20;;
7653;SDS011;3869;48.406;10.774;2022-07-29T13:10:23;1.53;;;1.43;;
7653;SDS011;3869;48.406;10.774;2022-07-29T13:13:04;1.70;;;1.33;;
7653;SDS011;3869;48.406;10.774;2022-07-29T13:15:35;1.30;;;1.20;;
7653;SDS011;3869;48.406;10.774;2022-07-29T13:18:04;1.07;;;1.07;;
7653;SDS011;3869;48.406;10.774;2022-07-29T13:20:52;1.23;;;1.20;;
7653;SDS011;3869;48.406;10.774;2022-07-29T13:23:20;1.37;;;1.10;;
7653;SDS011;3869;48.406;10.774;2022-07-29T13:25:48;1.33;;;1.23;;
7653;SDS011;3869;48.406;10.774;2022-07-29T13:28:17;1.80;;;1.70;;
7653;SDS011;3869;48.406;10.774;2022-07-29T13:30:46;10.00;;;1.23;;
7653;SDS011;3869;48.406;10.774;2022-07-29T13:33:14;1.33;;;1.23;;
7653;SDS011;3869;48.406;10.774;2022-07-29T13:35:42;1.00;;;1.00;;
7653;SDS011;3869;48.406;10.774;2022-07-29T13:38:10;1.57;;;1.30;;
7653;SDS011;3869;48.406;10.774;2022-07-29T13:40:38;1.50;;;1.40;;
7653;SDS011;3869;48.406;10.774;2022-07-29T13:43:08;2.10;;;1.27;;
7653;SDS011;3869;48.406;10.774;2022-07-29T13:45:36;1.63;;;1.53;;
7653;SDS011;3869;48.406;10.774;2022-07-29T13:48:06;1.00;;;1.00;;
7653;SDS011;3869;48.406;10.774;2022-07-29T13:50:34;0.90;;;0.90;;
7653;SDS011;3869;48.406;10.774;2022-07-29T13:53:02;0.90;;;0.90;;
7653;SDS011;3869;48.406;10.774;2022-07-29T13:55:30;1.60;;;1.50;;
7653;SDS011;3869;48.406;10.774;2022-07-29T13:57:58;1.20;;;1.20;;
7653;SDS011;3869;48.406;10.774;2022-07-29T14:00:29;1.30;;;1.20;;
7653;SDS011;3869;48.406;10.774;2022-07-29T14:02:57;1.20;;;1.10;;
7653;SDS011;3869;48.406;10.774;2022-07-29T14:05:26;1.40;;;1.40;;
7653;SDS011;3869;48.406;10.774;2022-07-29T14:07:54;1.47;;;1.37;;
7653;SDS011;3869;48.406;10.774;2022-07-29T14:10:22;1.10;;;1.10;;
7653;SDS011;3869;48.406;10.774;2022-07-29T14:12:50;1.10;;;1.00;;
7653;SDS011;3869;48.406;10.774;2022-07-29T14:15:18;2.40;;;1.17;;
7653;SDS011;3869;48.406;10.774;2022-07-29T14:17:46;1.17;;;1.17;;
7653;SDS011;3869;48.406;10.774;2022-07-29T14:20:14;1.67;;;1.57;;
7653;SDS011;3869;48.406;10.774;2022-07-29T14:22:44;1.53;;;1.43;;
7653;SDS011;3869;48.406;10.774;2022-07-29T14:25:12;1.40;;;1.30;;
7653;SDS011;3869;48.406;10.774;2022-07-29T14:27:41;1.13;;;1.03;;
7653;SDS011;3869;48.406;10.774;2022-07-29T14:30:09;1.20;;;1.13;;
7653;SDS011;3869;48.406;10.774;2022-07-29T14:32:38;1.27;;;1.27;;
7653;SDS011;3869;48.406;10.774;2022-07-29T14:35:06;1.10;;;1.10;;
7653;SDS011;3869;48.406;10.774;2022-07-29T14:37:35;0.90;;;0.90;;
7653;SDS011;3869;48.406;10.774;2022-07-29T14:40:07;1.30;;;1.20;;
7653;SDS011;3869;48.406;10.774;2022-07-29T14:42:36;1.47;;;1.13;;
7653;SDS011;3869;48.406;10.774;2022-07-29T14:45:05;1.10;;;1.10;;
7653;SDS011;3869;48.406;10.774;2022-07-29T14:47:34;1.30;;;1.30;;
7653;SDS011;3869;48.406;10.774;2022-07-29T14:50:04;1.47;;;1.37;;
7653;SDS011;3869;48.406;10.774;2022-07-29T14:52:32;1.83;;;1.30;;
7653;SDS011;3869;48.406;10.774;2022-07-29T14:55:00;1.50;;;1.40;;
7653;SDS011;3869;48.406;10.774;2022-07-29T14:57:31;1.30;;;1.30;;
7653;SDS011;3869;48.406;10.774;2022-07-29T14:59:59;2.07;;;1.87;;
7653;SDS011;3869;48.406;10.774;2022-07-29T15:02:27;1.70;;;1.60;;
7653;SDS011;3869;48.406;10.774;2022-07-29T15:05:15;1.33;;;1.30;;
7653;SDS011;3869;48.406;10.774;2022-07-29T15:07:43;1.50;;;1.40;;
7653;SDS011;3869;48.406;10.774;2022-07-29T15:10:11;1.73;;;1.63;;
7653;SDS011;3869;48.406;10.774;2022-07-29T15:12:42;1.53;;;1.43;;
7653;SDS011;3869;48.406;10.774;2022-07-29T15:15:10;1.50;;;1.40;;
7653;SDS011;3869;48.406;10.774;2022-07-29T15:17:38;1.17;;;1.17;;
7653;SDS011;3869;48.406;10.774;2022-07-29T15:20:06;6.37;;;1.77;;
7653;SDS011;3869;48.406;10.774;2022-07-29T15:22:34;2.10;;;1.67;;
7653;SDS011;3869;48.406;10.774;2022-07-29T15:25:04;1.93;;;1.60;;
7653;SDS011;3869;48.406;10.774;2022-07-29T15:27:33;1.10;;;1.10;;
7653;SDS011;3869;48.406;10.774;2022-07-29T15:30:02;1.50;;;1.50;;
7653;SDS011;3869;48.406;10.774;2022-07-29T15:32:31;1.30;;;1.20;;
7653;SDS011;3869;48.406;10.774;2022-07-29T15:34:59;1.67;;;1.57;;
7653;SDS011;3869;48.406;10.774;2022-07-29T15:37:27;2.07;;;1.97;;
7653;SDS011;3869;48.406;10.774;2022-07-29T15:40:14;1.77;;;1.67;;
7653;SDS011;3869;48.406;10.774;2022-07-29T15:42:42;1.40;;;1.30;;
7653;SDS011;3869;48.406;10.774;2022-07-29T15:45:12;1.40;;;1.30;;